A- A+ FrançaisEnglishEspañol中国

le plus proche LFBT Tarbes-Lourdes-PyrénéesLFOT Tours-St-Symphorien LFQY Saverne-Steinbourg LFPV Villacoublay-Velizy

manche à air

La météo aéronautique pour les pilotes, la préparation du vol avec les METAR (METeorological Aerodrome Report, message d'observation des conditions météorologiques pour l'aviation) et Les TAF (Terminal Aerodrome Forecast : message de prévision à court terme des conditions météorologiques pour l'aviation). Et les autres ressources comme les VAC (Visual Approch Chart) et les NOTAM (Notice To Airman) pour préprer les vols.

Aéroport Bouake (Côte d'Ivoire) / OACI DIBK/ IATA BYK

L'altitude de l'aéroport Bouake est de 375 m=1230 ft. Il est situé à proximité de (Côte d'Ivoire). La météo générale à 5 jours est disponible pour Sakassou situé à 39.8 km.

METAR de l'aéroport Bouake - DIBK

DIBK 231000Z 10010KT 4000 HZ FEW013 30/07 Q1016 NOSIG

Décodage du METAR de l'aéroport Bouake (CI)

METAR émis par DIBK le lundi 23 décembre 2019 à 10:00 heure TU. Attention ce METAR est obsolète car il a été émis il y a 18 heure et 14 minutes.

La visibilité est de 4 km=2.5 sm.

La température est de 30°C=86 °F et le point rosée est de 7°C=45 °F . Ce qui correspond à 24% d'humidité relative.

Le QNH est de 1016 hPa=30 inHg

Vent de 10 kt=19 km/h, orienté à 100°.

Nuages : Quelques nuages à 1300 ft=400 mètres.

HZ

Aucun changement significatif dans les deux heures à venir

TAF de l'aéroport Bouake - DIBK

DIBK 230500Z 2306/2406 02006KT 8000 NSC PROB30 2306/2309 2000 BR BECMG 2309/2311 4000 HZ

DIBK 230500Z 2306/2406 02006KT 8000 NSC probabilité de 30% d'avoir 2306/2309 2000 brume devenant 2309/2311 4000 brume sèche

Aéroport à proximité de Bouake

Météo générale à 5 jours à Sakassou (39.8 km)DIYO Aéroport Yamoussoukro (98 km)DIBC Aéroport Bocanda (99 km)DIDK Aéroport Dimbokro Ville (130 km)DISG Aéroport Seguela (182 km)DIDL Aéroport Daloa (187 km)DIKO Aéroport Korhogo (191 km)

Vue aérienne de l'aéroport Bouake

NOTAM de l'aéroport Bouake

Les NOTAM sont fournis sans aucune garantie de leur actualité. Le pilote est le seul responsable de la vérification de sa validité avant de l'utiliser opérationnellement pour préparer un vol ou l'utiliser lors de sa navigation.

Pas de NOTAM

Sources des données